createdAt,value
2023-05-24T00:01:42.336Z,94822.69
2023-05-24T00:04:09.301Z,94822.69
2023-05-24T00:06:37.319Z,94817.41
2023-05-24T00:09:06.904Z,94820.06
2023-05-24T00:11:36.082Z,94819.22
2023-05-24T00:14:02.859Z,94819.00
2023-05-24T00:16:29.697Z,94825.91
2023-05-24T00:18:58.394Z,94817.16
2023-05-24T00:21:25.183Z,94814.50
2023-05-24T00:23:52.090Z,94811.88
2023-05-24T00:26:18.947Z,94808.44
2023-05-24T00:28:48.241Z,94812.69
2023-05-24T00:31:15.040Z,94815.34
2023-05-24T00:33:41.747Z,94821.19
2023-05-24T00:36:10.652Z,94814.31
2023-05-24T00:38:42.946Z,94814.31
2023-05-24T00:41:11.682Z,94805.56
2023-05-24T00:43:38.496Z,94803.72
2023-05-24T00:46:24.728Z,94806.38
2023-05-24T00:48:53.815Z,94803.13
2023-05-24T00:51:20.635Z,94801.88
2023-05-24T00:53:48.334Z,94807.97
2023-05-24T00:56:17.709Z,94807.97
2023-05-24T00:58:46.829Z,94812.22
2023-05-24T01:01:15.873Z,94807.97
2023-05-24T01:03:46.420Z,94807.97
2023-05-24T01:06:13.514Z,94803.13
2023-05-24T01:08:40.354Z,94809.59
2023-05-24T01:11:35.259Z,94813.25
2023-05-24T01:14:41.001Z,94816.72
2023-05-24T01:17:48.848Z,94809.81
2023-05-24T01:20:17.771Z,94811.66
2023-05-24T01:23:06.405Z,94808.88
2023-05-24T01:25:44.522Z,94818.56
2023-05-24T01:28:13.800Z,94827.53
2023-05-24T01:30:40.971Z,94827.53
2023-05-24T01:33:07.808Z,94832.81
2023-05-24T01:35:40.222Z,94823.28
2023-05-24T01:38:11.180Z,94827.53
2023-05-24T01:40:41.174Z,94823.06
2023-05-24T01:43:24.358Z,94825.91
2023-05-24T01:45:54.254Z,94822.25
2023-05-24T01:48:58.655Z,94816.94
2023-05-24T01:51:30.523Z,94815.34
2023-05-24T01:53:57.146Z,94819.00
2023-05-24T01:56:23.841Z,94820.63
2023-05-24T01:58:55.897Z,94819.00
2023-05-24T02:01:26.034Z,94814.50
2023-05-24T02:03:52.811Z,94819.59
2023-05-24T02:06:19.973Z,94815.34
2023-05-24T02:08:46.742Z,94810.03
2023-05-24T02:11:13.413Z,94815.34
2023-05-24T02:13:42.320Z,94813.72
2023-05-24T02:16:13.636Z,94814.75
2023-05-24T02:18:44.966Z,94813.72
2023-05-24T02:21:13.880Z,94810.03
2023-05-24T02:23:40.833Z,94810.88
2023-05-24T02:26:07.772Z,94797.03
2023-05-24T02:28:34.511Z,94798.63
2023-05-24T02:31:03.438Z,94801.28
2023-05-24T02:33:32.299Z,94806.81
2023-05-24T02:36:01.505Z,94805.78
2023-05-24T02:38:32.880Z,94811.06
2023-05-24T02:40:59.601Z,94803.34
2023-05-24T02:43:26.266Z,94809.22
2023-05-24T02:45:53.003Z,94798.88
2023-05-24T02:48:19.748Z,94801.53
2023-05-24T02:50:48.629Z,94796.25
2023-05-24T02:53:17.555Z,94805.22
2023-05-24T02:55:46.682Z,94804.75
2023-05-24T02:58:18.149Z,94806.81
2023-05-24T03:00:47.181Z,94806.81
2023-05-24T03:03:13.887Z,94801.53
2023-05-24T03:05:45.281Z,94802.56
2023-05-24T03:08:11.991Z,94807.84
2023-05-24T03:10:38.772Z,94806.81
2023-05-24T03:13:07.829Z,94828.00
2023-05-24T03:15:34.591Z,94819.88
2023-05-24T03:18:01.347Z,94821.88
2023-05-24T03:20:34.041Z,94821.09
2023-05-24T03:23:03.273Z,94821.09
2023-05-24T03:25:33.081Z,94821.09
2023-05-24T03:27:59.935Z,94826.38
2023-05-24T03:30:31.427Z,94830.06
2023-05-24T03:32:58.214Z,94832.69
2023-05-24T03:35:24.993Z,94832.69
2023-05-24T03:37:56.846Z,94839.03
2023-05-24T03:40:25.821Z,94840.63
2023-05-24T03:42:52.475Z,94833.75
2023-05-24T03:45:34.614Z,94835.34
2023-05-24T03:48:05.061Z,94839.03
2023-05-24T03:50:34.073Z,94838.19
2023-05-24T03:53:03.090Z,94835.34
2023-05-24T03:55:32.118Z,94836.13
2023-05-24T03:58:04.167Z,94840.63
2023-05-24T04:00:31.018Z,94834.53
2023-05-24T04:02:57.668Z,94838.00
2023-05-24T04:05:29.819Z,94838.00
2023-05-24T04:07:58.779Z,94844.31
2023-05-24T04:10:25.498Z,94840.63
2023-05-24T04:12:57.215Z,94840.03
2023-05-24T04:15:26.927Z,94857.53
2023-05-24T04:17:56.197Z,94845.09
2023-05-24T04:20:27.948Z,94846.72
2023-05-24T04:22:56.897Z,94847.75
2023-05-24T04:25:26.990Z,94844.31
2023-05-24T04:27:53.716Z,94849.59
2023-05-24T04:30:22.777Z,94844.31
2023-05-24T04:32:52.283Z,94852.25
2023-05-24T04:35:23.829Z,94849.59
2023-05-24T04:37:52.637Z,94860.19
2023-05-24T04:40:23.042Z,94854.91
2023-05-24T04:42:50.311Z,94855.69
2023-05-24T04:45:17.123Z,94860.19
2023-05-24T04:47:46.632Z,94872.38
2023-05-24T04:50:13.498Z,94864.63
2023-05-24T04:52:42.986Z,94869.13
2023-05-24T04:55:10.323Z,94878.06
2023-05-24T04:57:36.969Z,94875.22
2023-05-24T05:00:04.981Z,94869.13
2023-05-24T05:02:32.075Z,94876.06
2023-05-24T05:04:58.839Z,94872.78
2023-05-24T05:07:27.747Z,94872.78
2023-05-24T05:09:57.064Z,94869.13
2023-05-24T05:12:23.984Z,94877.06
2023-05-24T05:14:53.252Z,94876.06
2023-05-24T05:17:22.094Z,94874.44
2023-05-24T05:19:48.833Z,94880.72
2023-05-24T05:22:18.583Z,94874.44
2023-05-24T05:24:45.218Z,94866.34
2023-05-24T05:27:14.181Z,94880.31
2023-05-24T05:29:41.693Z,94877.69
2023-05-24T05:32:08.724Z,94879.72
2023-05-24T05:34:40.201Z,94882.38
2023-05-24T05:37:07.405Z,94890.31
2023-05-24T05:39:34.092Z,94893.56
2023-05-24T05:42:03.525Z,94882.97
2023-05-24T05:44:30.198Z,94886.84
2023-05-24T05:46:56.954Z,94885.63
2023-05-24T05:49:26.029Z,94888.25
2023-05-24T05:51:55.031Z,94888.25
2023-05-24T05:54:27.920Z,94886.66
2023-05-24T05:56:58.214Z,94886.66
2023-05-24T05:59:28.522Z,94891.94
2023-05-24T06:01:55.313Z,94892.72
2023-05-24T06:04:22.032Z,94892.72
2023-05-24T06:06:53.533Z,94893.75
2023-05-24T06:09:22.691Z,94890.91
2023-05-24T06:11:52.255Z,94889.06
2023-05-24T06:14:21.435Z,94894.34
2023-05-24T06:16:51.279Z,94890.91
2023-05-24T06:19:18.567Z,94900.47
2023-05-24T06:21:48.477Z,94899.63
2023-05-24T06:24:17.974Z,94897.81
2023-05-24T06:26:45.624Z,94896.78
2023-05-24T06:29:19.712Z,94894.94
2023-05-24T06:31:47.502Z,94898.59
2023-05-24T06:34:19.013Z,94893.09
2023-05-24T06:36:47.912Z,94887.81
2023-05-24T06:39:15.343Z,94894.34
2023-05-24T06:41:43.300Z,94891.31
2023-05-24T06:44:12.141Z,94891.19
2023-05-24T06:46:41.563Z,94883.38
2023-05-24T06:49:10.469Z,94883.13
2023-05-24T06:51:39.375Z,94884.00
2023-05-24T06:54:09.069Z,94889.28
2023-05-24T06:56:35.757Z,94883.53
2023-05-24T06:59:04.644Z,94883.41
2023-05-24T07:01:33.828Z,94884.31
2023-05-24T07:04:03.424Z,94882.09
2023-05-24T07:06:32.389Z,94881.22
2023-05-24T07:08:59.367Z,94880.75
2023-05-24T07:11:28.397Z,94871.78
2023-05-24T07:13:55.255Z,94874.22
2023-05-24T07:16:26.669Z,94877.53
2023-05-24T07:18:58.380Z,94880.19
2023-05-24T07:21:27.378Z,94871.66
2023-05-24T07:23:57.115Z,94879.59
2023-05-24T07:26:29.699Z,94886.94
2023-05-24T07:28:58.512Z,94878.00
2023-05-24T07:31:29.870Z,94877.09
2023-05-24T07:33:58.747Z,94884.16
2023-05-24T07:36:26.174Z,94883.53
2023-05-24T07:38:55.767Z,94881.91
2023-05-24T07:41:23.282Z,94888.63
2023-05-24T07:43:49.988Z,94885.97
2023-05-24T07:46:19.298Z,94882.66
2023-05-24T07:48:46.252Z,94885.44
2023-05-24T07:51:15.695Z,94887.81
2023-05-24T07:53:44.880Z,94884.94
2023-05-24T07:56:11.632Z,94882.16
2023-05-24T07:58:43.068Z,94879.72
2023-05-24T08:01:13.262Z,94885.28
2023-05-24T08:03:40.093Z,94878.38
2023-05-24T08:06:06.874Z,94869.13
2023-05-24T08:08:33.800Z,94875.63
2023-05-24T08:11:00.501Z,94875.63
2023-05-24T08:13:27.250Z,94874.38
2023-05-24T08:15:53.983Z,94877.81
2023-05-24T08:18:22.874Z,94876.56
2023-05-24T08:20:49.622Z,94871.03
2023-05-24T08:23:18.786Z,94870.59
2023-05-24T08:25:47.732Z,94860.44
2023-05-24T08:28:17.114Z,94866.09
2023-05-24T08:30:43.925Z,94868.97
2023-05-24T08:33:12.808Z,94872.22
2023-05-24T08:35:39.624Z,94875.06
2023-05-24T08:38:07.042Z,94875.44
2023-05-24T08:40:36.408Z,94869.69
2023-05-24T08:43:03.544Z,94873.38
2023-05-24T08:45:31.329Z,94858.97
2023-05-24T08:48:00.460Z,94868.06
2023-05-24T08:50:29.867Z,94870.72
2023-05-24T08:52:56.631Z,94869.22
2023-05-24T08:55:30.000Z,94863.34
2023-05-24T08:58:01.205Z,94866.00
2023-05-24T09:00:28.024Z,94860.72
2023-05-24T09:02:54.792Z,94864.38
2023-05-24T09:05:24.483Z,94857.59
2023-05-24T09:07:51.241Z,94861.88
2023-05-24T09:10:23.838Z,94860.03
2023-05-24T09:12:55.762Z,94863.03
2023-05-24T09:15:22.593Z,94867.31
2023-05-24T09:17:49.528Z,94863.84
2023-05-24T09:20:16.600Z,94857.28
2023-05-24T09:22:43.977Z,94864.66
2023-05-24T09:25:13.051Z,94854.06
2023-05-24T09:27:40.077Z,94853.03
2023-05-24T09:30:11.058Z,94854.44
2023-05-24T09:32:38.074Z,94855.22
2023-05-24T09:35:08.359Z,94858.44
2023-05-24T09:37:40.428Z,94860.63
2023-05-24T09:40:09.123Z,94865.34
2023-05-24T09:42:36.461Z,94854.19
2023-05-24T09:45:09.435Z,94853.16
2023-05-24T09:47:37.222Z,94851.53
2023-05-24T09:50:05.334Z,94849.72
2023-05-24T09:52:33.871Z,94853.16
2023-05-24T09:55:01.288Z,94843.75
2023-05-24T09:57:30.369Z,94845.34
2023-05-24T09:59:59.342Z,94840.75
2023-05-24T10:02:26.141Z,94842.94
2023-05-24T10:05:00.749Z,94833.84
2023-05-24T10:07:27.748Z,94840.75
2023-05-24T10:09:55.330Z,94840.84
2023-05-24T10:12:25.830Z,94843.75
2023-05-24T10:14:57.586Z,94832.53
2023-05-24T10:17:28.158Z,94835.09
2023-05-24T10:19:57.137Z,94840.06
2023-05-24T10:22:26.197Z,94843.75
2023-05-24T10:25:00.111Z,94841.53
2023-05-24T10:27:31.711Z,94836.22
2023-05-24T10:30:09.478Z,94836.69
2023-05-24T10:32:40.212Z,94832.44
2023-05-24T10:35:07.651Z,94832.44
2023-05-24T10:37:37.264Z,94827.13
2023-05-24T10:40:06.763Z,94824.50
2023-05-24T10:42:35.953Z,94823.91
2023-05-24T10:45:27.812Z,94817.00
2023-05-24T10:47:56.756Z,94814.38
2023-05-24T10:50:24.502Z,94812.75
2023-05-24T10:52:51.228Z,94819.09
2023-05-24T10:55:19.537Z,94802.59
2023-05-24T10:57:46.292Z,94803.41
2023-05-24T11:00:34.494Z,94801.59
2023-05-24T11:03:09.527Z,94796.88
2023-05-24T11:05:46.796Z,94796.28
2023-05-24T11:08:16.067Z,94791.44
2023-05-24T11:10:45.913Z,94794.91
2023-05-24T11:13:12.631Z,94800.97
2023-05-24T11:15:50.952Z,94797.75
2023-05-24T11:18:20.395Z,94789.81
2023-05-24T11:20:50.405Z,94787.19
2023-05-24T11:23:17.328Z,94793.50
2023-05-24T11:25:46.405Z,94789.25
2023-05-24T11:28:13.310Z,94784.63
2023-05-24T11:30:44.086Z,94788.22
2023-05-24T11:33:14.828Z,94786.59
2023-05-24T11:35:42.106Z,94782.34
2023-05-24T11:38:13.529Z,94782.91
2023-05-24T11:40:47.042Z,94786.59
2023-05-24T11:43:16.672Z,94779.47
2023-05-24T11:45:48.751Z,94778.09
2023-05-24T11:48:18.916Z,94770.72
2023-05-24T11:50:50.337Z,94770.72
2023-05-24T11:53:21.226Z,94766.69
2023-05-24T11:55:51.528Z,94770.16
2023-05-24T11:58:21.429Z,94762.22
2023-05-24T12:00:50.786Z,94759.56
2023-05-24T12:03:20.537Z,94754.28
2023-05-24T12:05:49.811Z,94751.63
2023-05-24T12:08:20.462Z,94756.91
2023-05-24T12:10:50.855Z,94760.13
2023-05-24T12:13:23.334Z,94750.00
2023-05-24T12:15:58.407Z,94755.31
2023-05-24T12:18:28.385Z,94750.00
2023-05-24T12:20:55.059Z,94745.75
2023-05-24T12:23:24.344Z,94748.41
2023-05-24T12:25:51.072Z,94743.09
2023-05-24T12:28:24.815Z,94740.94
2023-05-24T12:30:57.213Z,94736.66
2023-05-24T12:33:24.092Z,94735.63
2023-05-24T12:35:53.532Z,94731.94
2023-05-24T12:38:25.491Z,94734.34
2023-05-24T12:41:11.642Z,94728.25
2023-05-24T12:43:40.804Z,94730.91
2023-05-24T12:46:07.836Z,94731.72
2023-05-24T12:48:40.299Z,94722.03
2023-05-24T12:51:09.882Z,94718.25
2023-05-24T12:53:39.202Z,94723.56
2023-05-24T12:56:06.160Z,94725.63
2023-05-24T12:58:35.043Z,94725.38
2023-05-24T13:01:03.889Z,94715.81
2023-05-24T13:03:30.720Z,94722.72
2023-05-24T13:05:59.508Z,94717.22
2023-05-24T13:08:28.724Z,94717.44
2023-05-24T13:10:55.504Z,94708.72
2023-05-24T13:13:24.385Z,94712.16
2023-05-24T13:15:52.385Z,94707.09
2023-05-24T13:18:21.479Z,94703.63
2023-05-24T13:20:48.516Z,94694.34
2023-05-24T13:23:15.468Z,94699.16
2023-05-24T13:25:44.371Z,94693.03
2023-05-24T13:28:11.520Z,94698.13
2023-05-24T13:30:38.763Z,94697.56
2023-05-24T13:33:05.980Z,94695.47
2023-05-24T13:35:35.009Z,94689.59
2023-05-24T13:38:04.167Z,94698.34
2023-05-24T13:40:31.682Z,94695.47
2023-05-24T13:42:58.979Z,94701.81
2023-05-24T13:45:26.072Z,94699.63
2023-05-24T13:47:53.958Z,94692.25
2023-05-24T13:50:22.841Z,94699.16
2023-05-24T13:52:49.672Z,94696.72
2023-05-24T13:55:16.694Z,94704.91
2023-05-24T14:00:17.680Z,94701.22
2023-05-24T14:02:46.719Z,94710.22
2023-05-24T14:05:25.940Z,94719.75
2023-05-24T14:08:00.248Z,94724.44
2023-05-24T14:10:29.463Z,94712.72
2023-05-24T14:13:12.879Z,94724.22
2023-05-24T14:15:46.822Z,94727.69
2023-05-24T14:18:16.126Z,94722.41
2023-05-24T14:20:47.550Z,94724.44
2023-05-24T14:23:16.703Z,94727.69
2023-05-24T14:25:46.958Z,94730.09
2023-05-24T14:28:18.482Z,94733.00
2023-05-24T14:30:45.257Z,94733.00
2023-05-24T14:33:19.758Z,94727.56
2023-05-24T14:35:46.706Z,94733.00
2023-05-24T14:38:15.942Z,94729.53
2023-05-24T14:40:47.584Z,94733.78
2023-05-24T14:43:14.844Z,94733.78
2023-05-24T14:45:43.925Z,94739.88
2023-05-24T14:48:13.275Z,94731.94
2023-05-24T14:50:40.429Z,94738.38
2023-05-24T14:53:12.199Z,94740.56
2023-05-24T14:55:57.855Z,94726.75
2023-05-24T14:58:24.781Z,94725.72
2023-05-24T15:00:51.613Z,94731.59
2023-05-24T15:03:18.721Z,94727.59
2023-05-24T15:05:45.677Z,94740.09
2023-05-24T15:08:14.815Z,94736.00
2023-05-24T15:10:44.468Z,94726.19
2023-05-24T15:13:11.924Z,94725.41
2023-05-24T15:15:42.043Z,94720.09
2023-05-24T15:18:11.051Z,94723.78
2023-05-24T15:20:40.465Z,94721.94
2023-05-24T15:23:10.613Z,94717.78
2023-05-24T15:25:39.687Z,94717.56
2023-05-24T15:28:06.602Z,94725.28
2023-05-24T15:30:33.346Z,94720.78
2023-05-24T15:33:00.175Z,94720.22
2023-05-24T15:35:27.522Z,94718.81
2023-05-24T15:37:56.719Z,94711.91
2023-05-24T15:40:27.084Z,94718.59
2023-05-24T15:42:56.578Z,94718.03
2023-05-24T15:45:23.504Z,94712.75
2023-05-24T15:47:50.247Z,94719.66
2023-05-24T15:50:28.560Z,94720.69
2023-05-24T15:53:03.541Z,94727.59
2023-05-24T15:55:30.378Z,94727.00
2023-05-24T15:57:57.868Z,94726.53
2023-05-24T16:00:29.956Z,94729.75
2023-05-24T16:02:58.005Z,94720.22
2023-05-24T16:05:26.949Z,94724.94
2023-05-24T16:07:53.798Z,94732.66
2023-05-24T16:10:23.668Z,94739.56
2023-05-24T16:12:55.431Z,94742.44
2023-05-24T16:15:22.334Z,94744.03
2023-05-24T16:17:55.309Z,94742.44
2023-05-24T16:20:22.282Z,94748.53
2023-05-24T16:22:51.297Z,94747.16
2023-05-24T16:25:17.961Z,94745.91
2023-05-24T16:27:46.951Z,94751.97
2023-05-24T16:30:16.292Z,94756.47
2023-05-24T16:32:46.453Z,94756.69
2023-05-24T16:35:13.279Z,94754.63
2023-05-24T16:37:40.100Z,94754.63
2023-05-24T16:40:07.681Z,94750.94
2023-05-24T16:42:36.961Z,94756.25
2023-05-24T16:45:04.014Z,94756.25
2023-05-24T16:47:33.059Z,94756.47
2023-05-24T16:49:59.933Z,94748.19
2023-05-24T16:52:28.789Z,94754.63
2023-05-24T16:54:57.685Z,94762.34
2023-05-24T16:57:26.684Z,94769.00
2023-05-24T16:59:58.188Z,94763.97
2023-05-24T17:02:24.956Z,94761.06
2023-05-24T17:04:53.944Z,94761.06
2023-05-24T17:07:20.711Z,94755.78
2023-05-24T17:09:50.214Z,94766.38
2023-05-24T17:12:17.560Z,94765.09
2023-05-24T17:14:44.621Z,94767.97
2023-05-24T17:17:13.760Z,94765.56
2023-05-24T17:19:42.705Z,94767.97
2023-05-24T17:22:11.989Z,94773.25
2023-05-24T17:24:40.902Z,94773.25
2023-05-24T17:27:09.851Z,94787.31
2023-05-24T17:29:39.185Z,94785.50
2023-05-24T17:32:08.233Z,94782.84
2023-05-24T17:34:34.987Z,94783.28
2023-05-24T17:37:06.375Z,94789.16
2023-05-24T17:39:35.849Z,94787.53
2023-05-24T17:42:03.039Z,94784.31
2023-05-24T17:44:29.902Z,94794.13
2023-05-24T17:46:57.534Z,94794.13
2023-05-24T17:49:26.664Z,94796.97
2023-05-24T17:51:53.658Z,94804.34
2023-05-24T17:54:22.517Z,94811.25
2023-05-24T17:56:51.434Z,94811.25
2023-05-24T17:59:18.348Z,94813.69
2023-05-24T18:01:48.960Z,94809.19
2023-05-24T18:04:18.062Z,94816.09
2023-05-24T18:06:45.413Z,94818.72
2023-05-24T18:09:14.252Z,94824.50
2023-05-24T18:11:41.317Z,94826.31
2023-05-24T18:14:08.051Z,94830.00
2023-05-24T18:16:39.528Z,94828.75
2023-05-24T18:19:09.023Z,94829.56
2023-05-24T18:21:37.921Z,94831.63
2023-05-24T18:24:07.297Z,94834.50
2023-05-24T18:26:36.181Z,94843.03
2023-05-24T18:29:05.088Z,94845.09
2023-05-24T18:31:31.839Z,94857.75
2023-05-24T18:34:01.898Z,94857.28
2023-05-24T18:36:29.533Z,94864.19
2023-05-24T18:38:56.561Z,94871.56
2023-05-24T18:41:23.310Z,94875.81
2023-05-24T18:43:50.053Z,94878.47
2023-05-24T18:46:21.594Z,94880.09
2023-05-24T18:48:48.376Z,94878.00
2023-05-24T18:51:17.757Z,94886.78
2023-05-24T18:53:48.900Z,94890.22
2023-05-24T18:56:18.557Z,94887.56
2023-05-24T18:58:49.661Z,94892.28
2023-05-24T19:01:19.134Z,94898.59
2023-05-24T19:03:48.216Z,94897.00
2023-05-24T19:06:18.700Z,94903.91
2023-05-24T19:08:45.506Z,94909.00
2023-05-24T19:11:12.334Z,94909.00
2023-05-24T19:13:41.915Z,94907.38
2023-05-24T19:16:17.432Z,94902.09
2023-05-24T19:18:47.289Z,94915.53
2023-05-24T19:21:17.057Z,94912.66
2023-05-24T19:23:48.480Z,94930.75
2023-05-24T19:26:20.533Z,94926.25
2023-05-24T19:28:51.935Z,94924.41
2023-05-24T19:31:23.398Z,94921.53
2023-05-24T19:36:25.983Z,94932.81
2023-05-24T19:38:54.848Z,94932.56
2023-05-24T19:41:24.118Z,94927.28
2023-05-24T19:43:54.955Z,94936.25
2023-05-24T19:46:23.218Z,94938.31
2023-05-24T19:48:54.641Z,94932.00
2023-05-24T19:51:21.450Z,94926.69
2023-05-24T19:53:48.086Z,94929.34
2023-05-24T19:56:14.793Z,94933.03
2023-05-24T19:58:41.501Z,94930.38
2023-05-24T20:01:10.563Z,94931.41
2023-05-24T20:03:39.980Z,94925.53
2023-05-24T20:06:06.973Z,94922.91
2023-05-24T20:08:35.867Z,94933.47
2023-05-24T20:11:03.405Z,94929.22
2023-05-24T20:13:32.700Z,94932.91
2023-05-24T20:16:01.787Z,94923.34
2023-05-24T20:18:30.718Z,94925.19
2023-05-24T20:20:57.636Z,94920.09
2023-05-24T20:23:27.570Z,94920.09
2023-05-24T20:25:55.736Z,94921.69
2023-05-24T20:28:30.902Z,94921.69
2023-05-24T20:30:58.689Z,94920.09
2023-05-24T20:33:27.709Z,94926.22
2023-05-24T20:35:56.799Z,94928.28
2023-05-24T20:38:25.635Z,94930.69
2023-05-24T20:40:54.537Z,94935.19
2023-05-24T20:43:21.509Z,94938.88
2023-05-24T20:45:50.442Z,94946.56
2023-05-24T20:48:17.629Z,94953.03
2023-05-24T20:50:44.499Z,94942.88
2023-05-24T20:53:11.681Z,94944.38
2023-05-24T20:55:40.868Z,94942.88
2023-05-24T20:58:09.708Z,94950.25
2023-05-24T21:00:38.261Z,94948.19
2023-05-24T21:03:11.339Z,94951.84
2023-05-24T21:05:40.132Z,94948.19
2023-05-24T21:08:11.616Z,94948.53
2023-05-24T21:10:40.792Z,94956.28
2023-05-24T21:13:09.644Z,94956.28
2023-05-24T21:15:36.371Z,94951.44
2023-05-24T21:18:03.844Z,94958.75
2023-05-24T21:20:30.602Z,94964.06
2023-05-24T21:22:57.305Z,94958.75
2023-05-24T21:25:24.547Z,94956.13
2023-05-24T21:27:53.622Z,94962.44
2023-05-24T21:30:20.483Z,94958.75
2023-05-24T21:32:49.320Z,94962.03
2023-05-24T21:35:21.556Z,94947.38
2023-05-24T21:37:48.562Z,94957.97
2023-05-24T21:40:15.739Z,94951.66
2023-05-24T21:42:43.353Z,94958.75
2023-05-24T21:45:12.751Z,94949.00
2023-05-24T21:47:39.521Z,94960.41
2023-05-24T21:50:06.849Z,94951.44
2023-05-24T21:52:39.546Z,94958.34
2023-05-24T21:55:06.575Z,94959.13
2023-05-24T21:57:35.469Z,94954.88
2023-05-24T22:00:05.127Z,94958.09
2023-05-24T22:02:32.079Z,94954.66
2023-05-24T22:05:01.707Z,94962.59
2023-05-24T22:07:30.744Z,94959.94
2023-05-24T22:09:59.788Z,94953.47
2023-05-24T22:12:26.456Z,94963.97
2023-05-24T22:14:57.861Z,94960.53
2023-05-24T22:17:26.819Z,94969.25
2023-05-24T22:19:55.732Z,94952.22
2023-05-24T22:22:22.797Z,94968.03
2023-05-24T22:24:51.789Z,94961.94
2023-05-24T22:27:18.548Z,94964.34
2023-05-24T22:29:48.425Z,94959.03
2023-05-24T22:32:20.509Z,94946.72
2023-05-24T22:34:47.303Z,94965.94
2023-05-24T22:37:16.722Z,94967.56
2023-05-24T22:39:46.016Z,94972.84
2023-05-24T22:42:15.409Z,94965.94
2023-05-24T22:44:46.579Z,94964.34
2023-05-24T22:47:14.127Z,94975.50
2023-05-24T22:49:43.130Z,94966.78
2023-05-24T22:52:11.948Z,94976.13
2023-05-24T22:54:40.833Z,94968.97
2023-05-24T22:57:07.430Z,94979.56
2023-05-24T22:59:37.416Z,94968.19
2023-05-24T23:02:07.341Z,94972.44
2023-05-24T23:04:34.097Z,94967.13
2023-05-24T23:07:03.154Z,94967.13
2023-05-24T23:09:35.396Z,94970.38
2023-05-24T23:12:07.579Z,94965.06
2023-05-24T23:14:38.632Z,94961.38
2023-05-24T23:17:10.484Z,94953.28
2023-05-24T23:19:43.332Z,94966.09
2023-05-24T23:22:11.989Z,94955.50
2023-05-24T23:24:44.546Z,94955.50
2023-05-24T23:27:11.417Z,94953.44
2023-05-24T23:29:59.450Z,94947.13
2023-05-24T23:32:28.466Z,94949.75
2023-05-24T23:34:55.341Z,94939.84
2023-05-24T23:37:24.448Z,94947.13
2023-05-24T23:39:52.037Z,94943.88
2023-05-24T23:42:18.798Z,94952.41
2023-05-24T23:44:50.180Z,94949.53
2023-05-24T23:47:19.020Z,94948.72
2023-05-24T23:49:47.789Z,94948.50
2023-05-24T23:52:16.921Z,94953.56
2023-05-24T23:54:45.791Z,94951.94
2023-05-24T23:57:14.896Z,94953.56
2023-05-24T23:59:43.786Z,94953.56
